Terminal Aerodrome Forecast
Issued by NWS

Home | Current Version | Previous Version | Graphics & Text | Print | Product List | Glossary On
Versions: 1 2 3 4 5 6 7 8 9 10 11 12 13 14 15 16 17 18 19 20
000
FTUS41 KCLE 011200 AAA
TAFFDY
TAF AMD
KFDY 011252Z 0113/0212 01003KT 1SM BR BKN002
      TEMPO 0113/0114 3SM BR SCT002
     FM011400 04005KT 5SM BR BKN005
     FM011600 07005KT P6SM BKN020
     FM011800 09005KT P6SM SCT035
     FM012200 11005KT P6SM SKC=

USA.gov is the U.S. government's official web portal to all federal, state and local government web resources and services.